Latest Weather Observations for Kununurra Airport

IDD60801

Issued at 5:51 am CST Saturday 28 November 2020 (issued every 10 minutes, with the page automatically refreshed every 10 minutes)

About weather observations | Map of weather stations | Latest weather observations for NT | Other Formats
Station Details ID: 002056 Name: KUNUNURRA AERO Lat: -15.78 Lon: 128.71 Height: 44.0 m
Data from the previous 72 hours. | See also: Recent months at Kununurra Airport
Date/Time
CST
Temp
°C
App
Temp
°C
Dew
Point
°C
Rel
Hum
%
Delta-T
°C
Wind Press
QNH
hPa
Press
MSL
hPa
Rain since
9am
mm
Dir  Spd
km/h
Gust
km/h
Spd
kts
Gust
kts
28/05:30am 28.0 33.0 26.0 89 1.4 NNE 11 13 6 7 1006.5 1006.1 0.0
28/05:00am 28.2 34.0 25.8 87 1.7 NNE 6 11 3 6 1006.2 1005.8 0.0
28/04:30am 28.6 35.6 25.8 85 2.0 CALM 0 6 0 3 1006.3 1005.9 0.0
28/04:00am 28.7 34.6 25.9 85 2.0 NNE 6 7 3 4 1006.1 1005.7 0.0
28/03:30am 28.7 35.0 25.9 85 2.0 NNE 4 7 2 4 1006.1 1005.7 0.0
28/03:00am 28.6 33.6 26.0 86 1.8 NNE 11 15 6 8 1005.7 1005.3 0.0
28/02:30am 28.7 33.4 25.5 83 2.3 N 11 13 6 7 1006.0 1005.6 0.0
28/02:00am 28.9 33.8 25.3 81 2.5 NNE 9 13 5 7 1006.3 1005.9 0.0
28/01:30am 29.2 33.7 25.2 79 2.8 N 11 17 6 9 1006.4 1006.0 0.0
28/01:00am 29.3 33.3 25.1 78 3.0 NNE 13 17 7 9 1006.5 1006.1 0.0
28/12:30am 29.6 34.3 24.9 76 3.3 NNE 9 11 5 6 1006.8 1006.4 0.0
28/12:00am 30.0 34.0 25.1 75 3.5 NNE 13 17 7 9 1006.7 1006.3 0.0
 
Date/Time
CST
Temp
°C
App
Temp
°C
Dew
Point
°C
Rel
Hum
%
Delta-T
°C
Wind Press
QNH
hPa
Press
MSL
hPa
Rain since
9am
mm
Dir  Spd
km/h
Gust
km/h
Spd
kts
Gust
kts
27/11:30pm 30.4 34.3 24.8 72 3.9 NNE 13 17 7 9 1006.8 1006.4 0.0
27/11:00pm 30.6 33.6 24.7 71 4.1 NNE 17 22 9 12 1006.3 1005.9 0.0
27/10:30pm 31.1 33.9 25.0 70 4.3 NNE 19 26 10 14 1006.0 1005.6 0.0
27/10:00pm 31.4 34.4 25.3 70 4.3 NNE 19 24 10 13 1005.5 1005.1 0.0
27/09:30pm 31.8 35.2 25.2 68 4.7 NNE 17 24 9 13 1004.9 1004.5 0.0
27/09:00pm 32.3 35.2 25.1 65 5.1 NNE 19 28 10 15 1004.4 1004.0 0.0
27/08:30pm 32.9 35.7 25.2 64 5.5 NNE 20 26 11 14 1004.0 1003.6 0.0
27/08:00pm 33.6 37.2 25.0 60 6.1 NNE 15 26 8 14 1003.7 1003.3 0.0
27/07:30pm 35.3 37.3 21.6 45 9.4 N 13 15 7 8 1003.5 1003.1 0.0
27/07:00pm 36.3 38.6 22.1 43 9.8 N 13 15 7 8 1003.1 1002.7 0.0
27/06:30pm 37.4 39.4 21.5 39 10.9 N 13 17 7 9 1002.9 1002.5 0.0
27/06:00pm 39.2 40.6 20.4 33 12.8 NNE 13 15 7 8 1002.5 1002.1 0.0
27/05:30pm 39.7 41.4 19.4 30 13.7 NNE 9 17 5 9 1002.4 1002.0 0.0
27/05:00pm 40.1 41.8 20.2 31 13.5 N 11 17 6 9 1002.3 1001.9 0.0
27/04:30pm 39.8 41.8 20.0 31 13.4 NNW 9 15 5 8 1002.5 1002.1 0.0
27/04:00pm 40.6 42.9 20.7 31 13.6 W 9 17 5 9 1003.0 1002.6 0.0
27/03:30pm 40.0 41.7 20.2 32 13.5 N 11 24 6 13 1003.5 1003.1 0.0
27/03:00pm 39.6 41.1 19.8 31 13.3 NE 11 17 6 9 1004.0 1003.6 0.0
27/02:30pm 39.2 41.2 20.0 33 13.0 N 9 15 5 8 1004.6 1004.2 0.0
27/02:00pm 39.5 41.6 20.2 32 13.1 W 9 19 5 10 1005.0 1004.6 0.0
27/01:30pm 39.2 42.3 21.4 35 12.2 NW 7 15 4 8 1005.7 1005.3 0.0
27/01:00pm 37.7 40.1 20.9 37 11.4 N 9 13 5 7 1006.3 1005.9 0.0
27/12:30pm 38.0 40.6 21.2 37 11.5 ENE 9 20 5 11 1006.8 1006.4 0.0
27/12:00pm 37.7 39.8 20.9 37 11.4 ENE 11 19 6 10 1007.5 1007.1 0.0
27/11:30am 36.8 38.5 21.0 40 10.8 NE 13 22 7 12 1008.1 1007.8 0.0
27/11:00am 36.2 38.4 21.2 41 10.2 NNE 11 17 6 9 1008.2 1007.9 0.0
27/10:30am 35.6 37.8 20.3 40 10.3 NNE 9 13 5 7 1008.0 1007.7 0.0
27/10:00am 35.1 37.8 21.4 45 9.3 N 9 17 5 9 1008.4 1008.1 0.0
27/09:30am 34.3 37.2 20.7 45 9.2 W 6 13 3 7 1008.2 1007.9 0.0
27/09:00am 33.3 36.4 21.5 50 8.0 WNW 7 11 4 6 1008.1 1007.8 0.0
27/08:30am 32.4 35.9 21.9 54 7.2 ENE 6 13 3 7 1008.0 1007.7 0.0
27/08:00am 31.2 34.3 21.4 56 6.6 N 7 9 4 5 1007.5 1007.1 0.0
27/07:30am 30.7 33.5 21.5 58 6.2 WNW 9 15 5 8 1007.4 1007.0 0.0
27/07:00am 29.9 32.4 21.0 59 5.9 W 9 11 5 6 1007.2 1006.8 0.0
27/06:30am 29.4 31.0 20.8 60 5.7 WSW 13 19 7 10 1006.9 1006.5 0.0
27/06:00am 29.4 29.9 20.8 60 5.7 WSW 19 24 10 13 1006.7 1006.3 0.0
27/05:30am 29.3 31.0 21.0 61 5.5 WSW 13 17 7 9 1006.2 1005.8 0.0
27/05:00am 29.4 33.0 22.4 66 4.8 W 7 9 4 5 1005.9 1005.5 0.0
27/04:30am 29.2 33.3 22.9 69 4.3 WSW 6 9 3 5 1005.4 1005.0 0.0
27/04:00am 29.9 33.6 22.6 65 5.0 W 7 13 4 7 1004.9 1004.5 0.0
27/03:30am 29.9 35.2 23.1 67 4.7 CALM 0 6 0 3 1004.6 1004.2 0.0
27/03:00am 30.1 34.1 22.8 65 5.0 SW 6 11 3 6 1004.5 1004.1 0.0
27/02:30am 30.0 32.4 22.9 65 4.9 WSW 15 19 8 10 1004.6 1004.2 0.0
27/02:00am 29.7 32.3 22.7 66 4.8 WSW 13 17 7 9 1004.8 1004.4 0.0
27/01:30am 29.5 31.6 21.7 63 5.3 WSW 13 17 7 9 1005.0 1004.6 0.0
27/01:00am 30.1 31.4 20.9 57 6.1 WSW 15 20 8 11 1005.5 1005.1 0.0
27/12:30am 29.7 31.3 20.8 58 5.9 WSW 13 15 7 8 1005.9 1005.5 0.0
27/12:00am 28.9 32.8 21.9 66 4.7 WSW 4 6 2 3 1005.9 1005.5 0.0
 
Date/Time
CST
Temp
°C
App
Temp
°C
Dew
Point
°C
Rel
Hum
%
Delta-T
°C
Wind Press
QNH
hPa
Press
MSL
hPa
Rain since
9am
mm
Dir  Spd
km/h
Gust
km/h
Spd
kts
Gust
kts
26/11:30pm 28.7 31.9 21.2 64 5.0 N 6 7 3 4 1006.2 1005.8 0.0
26/11:00pm 29.1 31.6 21.1 62 5.3 NNE 9 13 5 7 1006.2 1005.8 0.0
26/10:30pm 29.6 31.0 21.0 60 5.7 NNE 15 19 8 10 1006.7 1006.3 0.0
26/10:00pm 30.1 31.0 20.9 57 6.1 NNE 17 24 9 13 1006.3 1005.9 0.0
26/09:30pm 30.5 32.6 21.0 57 6.4 N 11 15 6 8 1005.7 1005.3 0.0
26/09:00pm 30.9 31.7 21.4 57 6.4 N 19 26 10 14 1005.4 1005.0 0.0
26/08:30pm 31.5 32.5 22.2 57 6.4 N 20 28 11 15 1004.8 1004.4 0.0
26/08:00pm 32.1 31.6 20.0 48 8.0 NNE 22 30 12 16 1004.7 1004.3 0.0
26/07:30pm 34.4 33.7 19.6 41 9.8 NNE 22 30 12 16 1003.8 1003.4 0.0
26/07:11pm 34.5 38.3 24.1 54 7.3 N 11 17 6 9 1003.7 1003.3 0.0
26/07:01pm 36.1 40.1 23.7 49 8.7 NNW 9 9 5 5 1003.5 1003.1 0.0
26/07:00pm 36.1 39.8 23.3 47 8.9 NNW 9 9 5 5 1003.5 1003.1 0.0
26/06:30pm 37.6 41.1 22.1 40 10.7 NW 7 9 4 5 1002.4 1002.0 0.0
26/06:00pm 37.6 40.5 21.7 39 10.9 W 9 13 5 7 1001.7 1001.3 0.0
26/05:30pm 38.8 41.2 20.1 33 12.7 N 7 11 4 6 1001.4 1001.0 0.0
26/05:00pm 39.3 41.5 19.5 31 13.3 SW 7 11 4 6 1001.6 1001.2 0.0
26/04:30pm 39.0 41.9 19.8 32 13.0 WSW 4 9 2 5 1002.2 1001.8 0.0
26/04:00pm 39.1 42.6 22.2 37 11.7 SW 7 11 4 6 1002.4 1002.0 0.0
26/03:30pm 38.1 41.3 21.7 38 11.3 NW 7 9 4 5 1002.9 1002.5 0.0
26/03:00pm 38.0 41.4 22.0 39 11.0 SSE 7 11 4 6 1003.3 1002.9 0.0
26/02:30pm 37.6 40.8 21.7 39 10.9 ESE 7 11 4 6 1003.6 1003.2 0.0
26/02:00pm 37.5 41.2 23.2 44 10.0 ESE 9 13 5 7 1004.0 1003.6 0.0
26/01:30pm 37.5 41.3 23.5 44 9.8 SE 9 13 5 7 1004.4 1004.0 0.0
26/01:00pm 37.9 42.0 23.9 44 9.9 SSE 9 13 5 7 1004.9 1004.5 0.0
26/12:30pm 36.9 40.7 23.4 46 9.5 SE 9 13 5 7 1005.5 1005.1 0.0
26/12:00pm 36.3 40.0 22.5 45 9.5 ESE 7 11 4 6 1006.0 1005.6 0.0
26/11:30am 35.3 40.4 24.9 55 7.4 ESE 7 15 4 8 1006.5 1006.1 0.0
26/11:00am 34.7 39.2 23.7 52 7.7 SSE 6 9 3 5 1006.7 1006.3 0.0
26/10:30am 33.3 38.4 25.0 61 5.9 NW 7 11 4 6 1006.9 1006.5 0.0
26/10:00am 32.5 37.8 25.8 68 4.8 N 9 11 5 6 1007.3 1006.9 0.0
26/09:30am 32.1 37.5 26.6 72 4.0 NNW 11 15 6 8 1007.1 1006.7 0.0
26/09:00am 30.5 35.6 26.7 80 2.7 NW 13 19 7 10 1007.4 1007.0 0.0
26/08:30am 29.5 35.4 26.7 85 2.0 NE 9 11 5 6 1007.2 1006.8 0.0
26/08:00am 29.1 35.3 26.7 87 1.7 W 7 11 4 6 1006.7 1006.3 0.0
26/07:30am 28.8 35.1 26.8 89 1.4 W 7 9 4 5 1006.8 1006.4 0.0
26/07:00am 29.1 35.3 26.3 85 2.0 SE 6 11 3 6 1007.1 1006.7 0.0
26/06:30am 29.0 33.8 26.2 85 2.0 E 13 19 7 10 1007.0 1006.6 0.0
26/06:00am 28.7 32.5 26.7 89 1.4 E 20 24 11 13 1006.8 1006.4 0.0
26/05:30am 27.9 32.4 27.0 95 0.6 ESE 17 28 9 15 1006.5 1006.1 0.0
26/05:00am 27.3 34.8 26.6 96 0.5 CALM 0 0 0 0 1005.3 1004.9 0.0
26/04:30am 27.4 33.5 26.5 95 0.6 NNW 7 9 4 5 1004.9 1004.5 0.0
26/04:00am 27.1 33.5 26.6 97 0.4 N 6 9 3 5 1004.7 1004.3 0.0
26/03:30am 27.6 35.0 26.4 93 0.9 CALM 0 2 0 1 1004.5 1004.1 0.0
26/03:00am 27.5 34.0 26.3 93 0.9 N 4 6 2 3 1004.4 1004.0 0.0
26/02:30am 27.8 33.3 26.2 91 1.1 NNE 9 11 5 6 1004.7 1004.3 0.0
26/02:00am 28.0 33.4 26.0 89 1.4 N 9 11 5 6 1004.9 1004.5 0.0
26/01:30am 28.4 32.9 25.8 86 1.8 N 13 15 7 8 1005.4 1005.0 0.0
26/01:00am 28.5 33.2 25.5 84 2.1 N 11 15 6 8 1005.6 1005.2 0.0
26/12:30am 29.0 33.2 25.4 81 2.5 N 13 15 7 8 1005.8 1005.4 0.0
26/12:00am 29.1 33.5 25.1 79 2.8 NNE 11 15 6 8 1006.1 1005.7 0.0
 
Date/Time
CST
Temp
°C
App
Temp
°C
Dew
Point
°C
Rel
Hum
%
Delta-T
°C
Wind Press
QNH
hPa
Press
MSL
hPa
Rain since
9am
mm
Dir  Spd
km/h
Gust
km/h
Spd
kts
Gust
kts
25/11:30pm 29.5 33.9 25.0 77 3.2 NNE 11 15 6 8 1006.2 1005.8 0.0
25/11:00pm 30.2 33.3 24.8 73 3.8 N 17 22 9 12 1006.0 1005.6 0.0
25/10:30pm 30.2 33.1 23.9 69 4.4 N 15 17 8 9 1006.1 1005.7 0.0
25/10:00pm 30.1 33.7 24.3 71 4.0 NNE 13 15 7 8 1005.7 1005.3 0.0
25/09:30pm 30.4 34.3 24.8 72 3.9 N 13 17 7 9 1005.3 1004.9 0.0
25/09:00pm 32.1 36.8 24.9 65 5.1 NW 9 11 5 6 1004.9 1004.5 0.0
25/08:30pm 32.9 37.5 24.1 60 6.2 NW 7 9 4 5 1004.5 1004.1 0.0
25/08:00pm 33.4 39.6 24.6 60 6.2 CALM 0 0 0 0 1003.9 1003.5 0.0
25/07:30pm 34.8 38.9 23.2 51 8.1 WSW 7 7 4 4 1003.3 1002.9 0.0
25/07:00pm 35.7 40.0 23.7 50 8.4 SW 7 9 4 5 1002.9 1002.5 0.0
25/06:30pm 37.3 39.8 21.0 38 11.1 SW 9 11 5 6 1002.6 1002.2 0.0
25/06:00pm 37.9 39.8 19.8 35 12.1 S 9 11 5 6 1002.2 1001.8 0.0
25/05:30pm 38.4 40.5 20.2 34 12.3 SSW 9 13 5 7 1002.1 1001.7 0.0
25/05:00pm 38.4 40.7 20.7 36 12.0 SSE 9 13 5 7 1002.2 1001.8 0.0
25/04:30pm 38.4 40.8 19.7 33 12.6 SE 6 11 3 6 1002.4 1002.0 0.0
25/04:00pm 38.0 40.4 20.8 37 11.7 S 9 15 5 8 1002.8 1002.4 0.0
25/03:30pm 37.9 40.6 20.7 36 11.7 WSW 7 17 4 9 1003.1 1002.7 0.0
25/03:00pm 37.1 39.7 21.2 39 10.8 W 9 11 5 6 1003.5 1003.1 0.0
25/02:30pm 36.2 38.4 21.2 41 10.2 S 11 15 6 8 1003.9 1003.5 0.0
25/02:00pm 36.5 39.7 23.0 45 9.4 S 11 17 6 9 1004.3 1003.9 0.0
25/01:30pm 36.6 39.6 21.2 40 10.5 S 7 11 4 6 1004.7 1004.3 0.0
25/01:00pm 35.9 38.6 21.3 42 9.9 SE 9 15 5 8 1005.2 1004.8 0.0
25/12:30pm 35.2 38.7 22.2 47 9.0 SSW 7 15 4 8 1005.5 1005.1 0.0
25/12:00pm 34.1 37.0 22.5 50 8.0 SSE 11 20 6 11 1005.9 1005.5 0.0
25/11:30am 33.0 36.8 22.4 53 7.3 WSW 6 9 3 5 1006.5 1006.1 0.0
25/11:00am 32.1 36.7 24.2 63 5.5 ESE 7 11 4 6 1006.9 1006.5 0.0
25/10:30am 31.1 34.8 23.2 63 5.5 S 9 11 5 6 1007.2 1006.8 9.0
25/10:00am 30.1 35.0 24.7 73 3.8 SSW 7 11 4 6 1007.5 1007.1 9.0
25/09:30am 27.8 32.7 24.6 83 2.2 SSE 7 11 4 6 1007.5 1007.1 9.0
25/09:00am 27.0 31.4 24.5 86 1.7 SSW 9 9 5 5 1007.2 1006.8 9.0
25/08:30am 26.1 29.9 23.4 85 1.8 SW 9 11 5 6 1007.0 1006.6 9.0
25/08:00am 25.4 29.1 23.3 88 1.4 WSW 9 11 5 6 1007.2 1006.8 9.0
25/07:30am 24.8 27.8 23.4 92 1.0 SW 13 17 7 9 1006.9 1006.5 9.0

Other formats

Comma delimited format used in spreadsheet applications
http://www.bom.gov.au/fwo/IDD60801/IDD60801.94216.axf

JavaScript Object Notation format (JSON) in row-major order
http://www.bom.gov.au/fwo/IDD60801/IDD60801.94216.json

Data quality

Most of these data are generated automatically and are frequently updated. Quality checks on data are not normally performed. It is possible for incorrect values to appear. Refer to information at About Latest Weather Observations and please check the disclaimer before using these data.